Home > Products > Valid Products > FWO

000
SHUS65 KGJT 022015
FWOGJT

DAILY FIRE WEATHER OBSERVATION
NATIONAL WEATHER SERVICE GRAND JUNCTION CO
112 PM MST MON MAR 2 2015

STATE OF THE WEATHER (W)               2
DRY BULB TEMPERATURE                   57   DEGREES FAHRENHEIT
RELATIVE HUMIDITY (RH)                 49   PERCENT
LIGHTNING ACTIVITY LEVEL
  (LAL - MIDNIGHT TO 1 PM)             1
WIND DIRECTION                         180  DEGREES (C IF CALM)
WIND SPEED                             18   MPH
MAX TEMP (1 PM - 1 PM)                 59   DEGREES FAHRENHEIT
MIN TEMP (1 PM - 1 PM)                 34   DEGREES FAHRENHEIT
MAX RH (1 PM - 1 PM)                   100  PERCENT
MIN RH (1 PM - 1 PM)                   49   PERCENT
PCPN DURATION                          7.9  HOURS
PCPN AMT (1 PM - 1 PM)                 0.09 INCHES
LAL (1 PM - 1 PM)                      1

$$

METAR KGJT 021953Z 18016KT 10SM FEW060 SCT090 14/03 A2967 RMK
      AO2 PK WND 16026/1911 PRESFR SLP023 T01390033




000
SHUS65 KGJT 022015
FWOGJT

DAILY FIRE WEATHER OBSERVATION
NATIONAL WEATHER SERVICE GRAND JUNCTION CO
112 PM MST MON MAR 2 2015

STATE OF THE WEATHER (W)               2
DRY BULB TEMPERATURE                   57   DEGREES FAHRENHEIT
RELATIVE HUMIDITY (RH)                 49   PERCENT
LIGHTNING ACTIVITY LEVEL
  (LAL - MIDNIGHT TO 1 PM)             1
WIND DIRECTION                         180  DEGREES (C IF CALM)
WIND SPEED                             18   MPH
MAX TEMP (1 PM - 1 PM)                 59   DEGREES FAHRENHEIT
MIN TEMP (1 PM - 1 PM)                 34   DEGREES FAHRENHEIT
MAX RH (1 PM - 1 PM)                   100  PERCENT
MIN RH (1 PM - 1 PM)                   49   PERCENT
PCPN DURATION                          7.9  HOURS
PCPN AMT (1 PM - 1 PM)                 0.09 INCHES
LAL (1 PM - 1 PM)                      1

$$

METAR KGJT 021953Z 18016KT 10SM FEW060 SCT090 14/03 A2967 RMK
      AO2 PK WND 16026/1911 PRESFR SLP023 T01390033





000
SHUS65 KGJT 022015
FWOGJT

DAILY FIRE WEATHER OBSERVATION
NATIONAL WEATHER SERVICE GRAND JUNCTION CO
112 PM MST MON MAR 2 2015

STATE OF THE WEATHER (W)               2
DRY BULB TEMPERATURE                   57   DEGREES FAHRENHEIT
RELATIVE HUMIDITY (RH)                 49   PERCENT
LIGHTNING ACTIVITY LEVEL
  (LAL - MIDNIGHT TO 1 PM)             1
WIND DIRECTION                         180  DEGREES (C IF CALM)
WIND SPEED                             18   MPH
MAX TEMP (1 PM - 1 PM)                 59   DEGREES FAHRENHEIT
MIN TEMP (1 PM - 1 PM)                 34   DEGREES FAHRENHEIT
MAX RH (1 PM - 1 PM)                   100  PERCENT
MIN RH (1 PM - 1 PM)                   49   PERCENT
PCPN DURATION                          7.9  HOURS
PCPN AMT (1 PM - 1 PM)                 0.09 INCHES
LAL (1 PM - 1 PM)                      1

$$

METAR KGJT 021953Z 18016KT 10SM FEW060 SCT090 14/03 A2967 RMK
      AO2 PK WND 16026/1911 PRESFR SLP023 T01390033





000
SHUS65 KGJT 022015
FWOGJT

DAILY FIRE WEATHER OBSERVATION
NATIONAL WEATHER SERVICE GRAND JUNCTION CO
112 PM MST MON MAR 2 2015

STATE OF THE WEATHER (W)               2
DRY BULB TEMPERATURE                   57   DEGREES FAHRENHEIT
RELATIVE HUMIDITY (RH)                 49   PERCENT
LIGHTNING ACTIVITY LEVEL
  (LAL - MIDNIGHT TO 1 PM)             1
WIND DIRECTION                         180  DEGREES (C IF CALM)
WIND SPEED                             18   MPH
MAX TEMP (1 PM - 1 PM)                 59   DEGREES FAHRENHEIT
MIN TEMP (1 PM - 1 PM)                 34   DEGREES FAHRENHEIT
MAX RH (1 PM - 1 PM)                   100  PERCENT
MIN RH (1 PM - 1 PM)                   49   PERCENT
PCPN DURATION                          7.9  HOURS
PCPN AMT (1 PM - 1 PM)                 0.09 INCHES
LAL (1 PM - 1 PM)                      1

$$

METAR KGJT 021953Z 18016KT 10SM FEW060 SCT090 14/03 A2967 RMK
      AO2 PK WND 16026/1911 PRESFR SLP023 T01390033




000
SHUS65 KGJT 012018
FWOGJT

DAILY FIRE WEATHER OBSERVATION
NATIONAL WEATHER SERVICE GRAND JUNCTION CO
112 PM MST SUN MAR 1 2015

STATE OF THE WEATHER (W)               3
DRY BULB TEMPERATURE                   44   DEGREES FAHRENHEIT
RELATIVE HUMIDITY (RH)                 60   PERCENT
LIGHTNING ACTIVITY LEVEL
  (LAL - MIDNIGHT TO 2 PM)             1
WIND DIRECTION                         C    DEGREES (C IF CALM)
WIND SPEED                             0    MPH
MAX TEMP (2 PM - 2 PM)                 44   DEGREES FAHRENHEIT
MIN TEMP (2 PM - 2 PM)                 24   DEGREES FAHRENHEIT
MAX RH (2 PM - 2 PM)                   96   PERCENT
MIN RH (2 PM - 2 PM)                   42   PERCENT
PCPN DURATION                          0.2  HOURS
PCPN AMT (2 PM - 2 PM)                 T    INCHES
LAL (2 PM - 2 PM)                      1

$$

METAR KGJT 011953Z 00000KT 10SM FEW029 OVC090 07/M01 A3008 RMK
      AO2 SLP188 T00671006




000
SHUS65 KGJT 012018
FWOGJT

DAILY FIRE WEATHER OBSERVATION
NATIONAL WEATHER SERVICE GRAND JUNCTION CO
112 PM MST SUN MAR 1 2015

STATE OF THE WEATHER (W)               3
DRY BULB TEMPERATURE                   44   DEGREES FAHRENHEIT
RELATIVE HUMIDITY (RH)                 60   PERCENT
LIGHTNING ACTIVITY LEVEL
  (LAL - MIDNIGHT TO 2 PM)             1
WIND DIRECTION                         C    DEGREES (C IF CALM)
WIND SPEED                             0    MPH
MAX TEMP (2 PM - 2 PM)                 44   DEGREES FAHRENHEIT
MIN TEMP (2 PM - 2 PM)                 24   DEGREES FAHRENHEIT
MAX RH (2 PM - 2 PM)                   96   PERCENT
MIN RH (2 PM - 2 PM)                   42   PERCENT
PCPN DURATION                          0.2  HOURS
PCPN AMT (2 PM - 2 PM)                 T    INCHES
LAL (2 PM - 2 PM)                      1

$$

METAR KGJT 011953Z 00000KT 10SM FEW029 OVC090 07/M01 A3008 RMK
      AO2 SLP188 T00671006





000
SHUS65 KGJT 012018
FWOGJT

DAILY FIRE WEATHER OBSERVATION
NATIONAL WEATHER SERVICE GRAND JUNCTION CO
112 PM MST SUN MAR 1 2015

STATE OF THE WEATHER (W)               3
DRY BULB TEMPERATURE                   44   DEGREES FAHRENHEIT
RELATIVE HUMIDITY (RH)                 60   PERCENT
LIGHTNING ACTIVITY LEVEL
  (LAL - MIDNIGHT TO 2 PM)             1
WIND DIRECTION                         C    DEGREES (C IF CALM)
WIND SPEED                             0    MPH
MAX TEMP (2 PM - 2 PM)                 44   DEGREES FAHRENHEIT
MIN TEMP (2 PM - 2 PM)                 24   DEGREES FAHRENHEIT
MAX RH (2 PM - 2 PM)                   96   PERCENT
MIN RH (2 PM - 2 PM)                   42   PERCENT
PCPN DURATION                          0.2  HOURS
PCPN AMT (2 PM - 2 PM)                 T    INCHES
LAL (2 PM - 2 PM)                      1

$$

METAR KGJT 011953Z 00000KT 10SM FEW029 OVC090 07/M01 A3008 RMK
      AO2 SLP188 T00671006




000
SHUS65 KGJT 012018
FWOGJT

DAILY FIRE WEATHER OBSERVATION
NATIONAL WEATHER SERVICE GRAND JUNCTION CO
112 PM MST SUN MAR 1 2015

STATE OF THE WEATHER (W)               3
DRY BULB TEMPERATURE                   44   DEGREES FAHRENHEIT
RELATIVE HUMIDITY (RH)                 60   PERCENT
LIGHTNING ACTIVITY LEVEL
  (LAL - MIDNIGHT TO 2 PM)             1
WIND DIRECTION                         C    DEGREES (C IF CALM)
WIND SPEED                             0    MPH
MAX TEMP (2 PM - 2 PM)                 44   DEGREES FAHRENHEIT
MIN TEMP (2 PM - 2 PM)                 24   DEGREES FAHRENHEIT
MAX RH (2 PM - 2 PM)                   96   PERCENT
MIN RH (2 PM - 2 PM)                   42   PERCENT
PCPN DURATION                          0.2  HOURS
PCPN AMT (2 PM - 2 PM)                 T    INCHES
LAL (2 PM - 2 PM)                      1

$$

METAR KGJT 011953Z 00000KT 10SM FEW029 OVC090 07/M01 A3008 RMK
      AO2 SLP188 T00671006





000
SHUS65 KGJT 282015
FWOGJT

DAILY FIRE WEATHER OBSERVATION
NATIONAL WEATHER SERVICE GRAND JUNCTION CO
112 PM MST SAT FEB 28 2015

STATE OF THE WEATHER (W)               2
DRY BULB TEMPERATURE                   38   DEGREES FAHRENHEIT
RELATIVE HUMIDITY (RH)                 44   PERCENT
LIGHTNING ACTIVITY LEVEL
  (LAL - MIDNIGHT TO 2 PM)             1
WIND DIRECTION                         135  DEGREES (C IF CALM)
WIND SPEED                             7    MPH
MAX TEMP (2 PM - 2 PM)                 43   DEGREES FAHRENHEIT
MIN TEMP (2 PM - 2 PM)                 22   DEGREES FAHRENHEIT
MAX RH (2 PM - 2 PM)                   88   PERCENT
MIN RH (2 PM - 2 PM)                   44   PERCENT
PCPN DURATION                          0.0  HOURS
PCPN AMT (2 PM - 2 PM)                 0.0  INCHES
LAL (2 PM - 2 PM)                      1

$$

METAR KGJT 281953Z 12006KT 10SM SCT055 BKN070 03/M08 A2975 RMK
      AO2 SLP081 VCSH T00331078




000
SHUS65 KGJT 282015
FWOGJT

DAILY FIRE WEATHER OBSERVATION
NATIONAL WEATHER SERVICE GRAND JUNCTION CO
112 PM MST SAT FEB 28 2015

STATE OF THE WEATHER (W)               2
DRY BULB TEMPERATURE                   38   DEGREES FAHRENHEIT
RELATIVE HUMIDITY (RH)                 44   PERCENT
LIGHTNING ACTIVITY LEVEL
  (LAL - MIDNIGHT TO 2 PM)             1
WIND DIRECTION                         135  DEGREES (C IF CALM)
WIND SPEED                             7    MPH
MAX TEMP (2 PM - 2 PM)                 43   DEGREES FAHRENHEIT
MIN TEMP (2 PM - 2 PM)                 22   DEGREES FAHRENHEIT
MAX RH (2 PM - 2 PM)                   88   PERCENT
MIN RH (2 PM - 2 PM)                   44   PERCENT
PCPN DURATION                          0.0  HOURS
PCPN AMT (2 PM - 2 PM)                 0.0  INCHES
LAL (2 PM - 2 PM)                      1

$$

METAR KGJT 281953Z 12006KT 10SM SCT055 BKN070 03/M08 A2975 RMK
      AO2 SLP081 VCSH T00331078





000
SHUS65 KGJT 282015
FWOGJT

DAILY FIRE WEATHER OBSERVATION
NATIONAL WEATHER SERVICE GRAND JUNCTION CO
112 PM MST SAT FEB 28 2015

STATE OF THE WEATHER (W)               2
DRY BULB TEMPERATURE                   38   DEGREES FAHRENHEIT
RELATIVE HUMIDITY (RH)                 44   PERCENT
LIGHTNING ACTIVITY LEVEL
  (LAL - MIDNIGHT TO 2 PM)             1
WIND DIRECTION                         135  DEGREES (C IF CALM)
WIND SPEED                             7    MPH
MAX TEMP (2 PM - 2 PM)                 43   DEGREES FAHRENHEIT
MIN TEMP (2 PM - 2 PM)                 22   DEGREES FAHRENHEIT
MAX RH (2 PM - 2 PM)                   88   PERCENT
MIN RH (2 PM - 2 PM)                   44   PERCENT
PCPN DURATION                          0.0  HOURS
PCPN AMT (2 PM - 2 PM)                 0.0  INCHES
LAL (2 PM - 2 PM)                      1

$$

METAR KGJT 281953Z 12006KT 10SM SCT055 BKN070 03/M08 A2975 RMK
      AO2 SLP081 VCSH T00331078




000
SHUS65 KGJT 282015
FWOGJT

DAILY FIRE WEATHER OBSERVATION
NATIONAL WEATHER SERVICE GRAND JUNCTION CO
112 PM MST SAT FEB 28 2015

STATE OF THE WEATHER (W)               2
DRY BULB TEMPERATURE                   38   DEGREES FAHRENHEIT
RELATIVE HUMIDITY (RH)                 44   PERCENT
LIGHTNING ACTIVITY LEVEL
  (LAL - MIDNIGHT TO 2 PM)             1
WIND DIRECTION                         135  DEGREES (C IF CALM)
WIND SPEED                             7    MPH
MAX TEMP (2 PM - 2 PM)                 43   DEGREES FAHRENHEIT
MIN TEMP (2 PM - 2 PM)                 22   DEGREES FAHRENHEIT
MAX RH (2 PM - 2 PM)                   88   PERCENT
MIN RH (2 PM - 2 PM)                   44   PERCENT
PCPN DURATION                          0.0  HOURS
PCPN AMT (2 PM - 2 PM)                 0.0  INCHES
LAL (2 PM - 2 PM)                      1

$$

METAR KGJT 281953Z 12006KT 10SM SCT055 BKN070 03/M08 A2975 RMK
      AO2 SLP081 VCSH T00331078





    US Dept of Commerce
    National Oceanic and Atmospheric Administration
    National Weather Service
    1325 East West Highway
    Silver Spring, MD 20910
    Page Author: NWS Internet Services Team
Disclaimer
Information Quality
Credits
Glossary
Privacy Policy
Freedom of Information Act (FOIA)
About Us
Career Opportunities